createdAt,value
2023-04-11T00:07:25.481Z,99.90
2023-04-11T00:17:31.279Z,99.90
2023-04-11T00:27:36.448Z,99.90
2023-04-11T00:37:44.194Z,99.90
2023-04-11T00:47:50.420Z,99.90
2023-04-11T00:57:55.833Z,99.90
2023-04-11T01:08:01.439Z,99.90
2023-04-11T01:18:06.341Z,99.90
2023-04-11T01:28:11.616Z,99.90
2023-04-11T01:38:15.317Z,99.90
2023-04-11T01:48:21.839Z,99.90
2023-04-11T01:58:25.497Z,99.90
2023-04-11T02:08:30.481Z,99.90
2023-04-11T02:18:34.098Z,99.90
2023-04-11T02:28:39.107Z,99.90
2023-04-11T02:38:42.689Z,99.90
2023-04-11T02:48:47.726Z,99.90
2023-04-11T02:58:52.567Z,99.90
2023-04-11T03:08:58.007Z,99.90
2023-04-11T03:19:02.075Z,99.90
2023-04-11T03:29:07.161Z,99.90
2023-04-11T03:39:10.948Z,99.90
2023-04-11T03:49:15.993Z,99.90
2023-04-11T03:59:19.654Z,99.90
2023-04-11T04:09:24.857Z,99.90
2023-04-11T04:19:28.617Z,99.90
2023-04-11T04:29:38.221Z,99.90
2023-04-11T04:39:42.799Z,99.90
2023-04-11T04:49:47.842Z,99.90
2023-04-11T04:59:51.473Z,99.90
2023-04-11T05:09:56.486Z,99.90
2023-04-11T05:20:00.476Z,99.90
2023-04-11T05:30:07.085Z,99.90
2023-04-11T05:40:11.954Z,99.90
2023-04-11T05:50:16.973Z,99.90
2023-04-11T06:00:22.137Z,99.90
2023-04-11T06:10:27.682Z,99.90
2023-04-11T06:20:31.516Z,99.90
2023-04-11T06:30:36.644Z,99.90
2023-04-11T06:40:40.346Z,99.90
2023-04-11T06:50:46.388Z,99.90
2023-04-11T07:00:50.032Z,99.90
2023-04-11T07:10:55.161Z,99.90
2023-04-11T07:20:58.896Z,97.70
2023-04-11T07:31:04.156Z,96.40
2023-04-11T07:41:09.419Z,96.10
2023-04-11T07:51:14.784Z,94.00
2023-04-11T08:01:23.132Z,92.30
2023-04-11T08:11:28.425Z,91.80
2023-04-11T08:21:32.270Z,90.50
2023-04-11T08:31:37.278Z,85.70
2023-04-11T08:41:41.254Z,85.10
2023-04-11T08:51:46.846Z,84.10
2023-04-11T09:01:51.156Z,85.90
2023-04-11T09:11:56.505Z,81.20
2023-04-11T09:22:02.464Z,74.60
2023-04-11T09:32:07.937Z,76.30
2023-04-11T09:42:25.289Z,76.90
2023-04-11T09:52:33.530Z,75.40
2023-04-11T10:02:37.416Z,73.50
2023-04-11T10:12:43.304Z,73.80
2023-04-11T10:23:00.814Z,75.30
2023-04-11T10:33:13.358Z,71.00
2023-04-11T10:43:21.943Z,70.10
2023-04-11T10:53:38.444Z,68.90
2023-04-11T11:03:53.072Z,74.90
2023-04-11T11:13:58.609Z,74.30
2023-04-11T11:24:04.459Z,70.80
2023-04-11T11:44:24.173Z,66.20
2023-04-11T11:54:29.306Z,57.20
2023-04-11T12:04:33.906Z,54.50
2023-04-11T12:14:39.397Z,55.00
2023-04-11T12:24:43.371Z,43.90
2023-04-11T12:34:49.663Z,51.90
2023-04-11T12:44:53.656Z,52.50
2023-04-11T12:54:59.101Z,38.00
2023-04-11T13:05:06.428Z,37.80
2023-04-11T13:15:13.393Z,41.50
2023-04-11T13:25:17.325Z,43.00
2023-04-11T13:35:22.461Z,43.00
2023-04-11T13:45:26.421Z,42.40
2023-04-11T13:55:31.798Z,43.30
2023-04-11T14:05:36.654Z,41.40
2023-04-11T14:15:42.099Z,38.30
2023-04-11T14:25:46.188Z,37.00
2023-04-11T14:35:51.726Z,35.30
2023-04-11T14:45:57.543Z,36.00
2023-04-11T14:56:06.477Z,37.10
2023-04-11T15:06:12.171Z,38.80
2023-04-11T15:16:18.767Z,39.60
2023-04-11T15:26:23.928Z,37.50
2023-04-11T15:36:29.697Z,41.10
2023-04-11T15:46:33.734Z,43.90
2023-04-11T15:56:38.816Z,44.10
2023-04-11T16:06:42.762Z,41.60
2023-04-11T16:16:48.050Z,41.00
2023-04-11T16:26:51.852Z,40.90
2023-04-11T16:36:57.514Z,39.40
2023-04-11T16:47:01.560Z,39.50
2023-04-11T16:57:06.809Z,39.30
2023-04-11T17:07:11.160Z,38.80
2023-04-11T17:17:16.360Z,39.10
2023-04-11T17:27:20.096Z,39.30
2023-04-11T17:37:25.572Z,41.50
2023-04-11T17:47:29.486Z,42.20
2023-04-11T17:57:34.670Z,44.00
2023-04-11T18:07:40.839Z,45.70
2023-04-11T18:17:46.263Z,47.80
2023-04-11T18:27:50.471Z,51.60
2023-04-11T18:37:55.922Z,55.30
2023-04-11T18:48:00.239Z,56.10
2023-04-11T18:58:08.498Z,57.50
2023-04-11T19:08:13.198Z,60.70
2023-04-11T19:18:18.333Z,62.80
2023-04-11T19:28:22.277Z,65.50
2023-04-11T19:38:27.369Z,66.40
2023-04-11T19:48:31.160Z,69.40
2023-04-11T19:58:36.534Z,72.30
2023-04-11T20:08:40.923Z,75.20
2023-04-11T20:18:46.838Z,79.60
2023-04-11T20:28:50.726Z,82.60
2023-04-11T20:38:57.854Z,80.70
2023-04-11T20:49:02.157Z,78.40
2023-04-11T20:59:09.049Z,77.60
2023-04-11T21:09:13.293Z,77.50
2023-04-11T21:19:18.419Z,75.50
2023-04-11T21:29:22.240Z,75.80
2023-04-11T21:39:27.316Z,76.90
2023-04-11T21:49:31.183Z,77.80
2023-04-11T21:59:36.950Z,78.80
2023-04-11T22:09:46.165Z,81.40
2023-04-11T22:19:51.308Z,91.30
2023-04-11T22:29:56.307Z,91.30
2023-04-11T22:40:01.703Z,93.20
2023-04-11T22:50:06.528Z,91.40
2023-04-11T23:00:16.341Z,92.30
2023-04-11T23:10:20.210Z,91.60
2023-04-11T23:20:25.396Z,90.10
2023-04-11T23:30:29.852Z,90.60
2023-04-11T23:40:34.864Z,90.80
2023-04-11T23:50:38.716Z,91.40
